sensor_id;sensor_type;location;lat;lon;timestamp;temperature;humidity
14521;DHT22;7347;50.844;4.490;2023-07-22T07:26:22;19.60;99.90
14521;DHT22;7347;50.844;4.490;2023-07-22T07:28:50;20.20;99.90
14521;DHT22;7347;50.844;4.490;2023-07-22T07:31:17;20.80;99.90
14521;DHT22;7347;50.844;4.490;2023-07-22T07:33:44;21.10;99.90
14521;DHT22;7347;50.844;4.490;2023-07-22T07:36:11;21.80;99.90
14521;DHT22;7347;50.844;4.490;2023-07-22T07:38:38;22.00;99.90
14521;DHT22;7347;50.844;4.490;2023-07-22T07:41:05;22.00;99.90
14521;DHT22;7347;50.844;4.490;2023-07-22T07:43:35;21.90;99.90
14521;DHT22;7347;50.844;4.490;2023-07-22T07:46:16;21.90;99.90
14521;DHT22;7347;50.844;4.490;2023-07-22T07:48:45;21.80;99.90
14521;DHT22;7347;50.844;4.490;2023-07-22T07:51:12;21.80;99.90
14521;DHT22;7347;50.844;4.490;2023-07-22T07:53:40;22.00;99.90
14521;DHT22;7347;50.844;4.490;2023-07-22T07:56:08;22.20;99.90
14521;DHT22;7347;50.844;4.490;2023-07-22T07:58:36;22.70;99.90
14521;DHT22;7347;50.844;4.490;2023-07-22T08:01:03;23.10;99.90
14521;DHT22;7347;50.844;4.490;2023-07-22T08:03:30;23.00;99.90
14521;DHT22;7347;50.844;4.490;2023-07-22T08:05:57;22.50;99.90
14521;DHT22;7347;50.844;4.490;2023-07-22T08:08:24;22.10;99.90
14521;DHT22;7347;50.844;4.490;2023-07-22T08:10:58;21.80;99.90
14521;DHT22;7347;50.844;4.490;2023-07-22T08:13:25;21.40;99.90
14521;DHT22;7347;50.844;4.490;2023-07-22T08:15:53;21.30;99.90
14521;DHT22;7347;50.844;4.490;2023-07-22T08:18:20;21.30;99.90
14521;DHT22;7347;50.844;4.490;2023-07-22T08:20:47;21.10;99.90
14521;DHT22;7347;50.844;4.490;2023-07-22T08:23:14;21.40;99.90
14521;DHT22;7347;50.844;4.490;2023-07-22T08:25:41;21.10;99.90
14521;DHT22;7347;50.844;4.490;2023-07-22T08:28:07;21.20;99.90
14521;DHT22;7347;50.844;4.490;2023-07-22T08:30:34;21.30;99.90
14521;DHT22;7347;50.844;4.490;2023-07-22T08:33:03;21.10;99.90
14521;DHT22;7347;50.844;4.490;2023-07-22T08:35:30;21.30;99.90
14521;DHT22;7347;50.844;4.490;2023-07-22T08:37:56;21.40;99.90
14521;DHT22;7347;50.844;4.490;2023-07-22T08:40:23;21.80;99.90
14521;DHT22;7347;50.844;4.490;2023-07-22T08:42:50;22.30;99.90
14521;DHT22;7347;50.844;4.490;2023-07-22T08:45:19;22.10;99.90
14521;DHT22;7347;50.844;4.490;2023-07-22T08:47:47;21.90;99.90
14521;DHT22;7347;50.844;4.490;2023-07-22T08:50:20;21.60;99.90
14521;DHT22;7347;50.844;4.490;2023-07-22T08:52:48;21.50;99.90
14521;DHT22;7347;50.844;4.490;2023-07-22T08:55:15;21.50;99.90
14521;DHT22;7347;50.844;4.490;2023-07-22T08:57:42;21.80;99.90
14521;DHT22;7347;50.844;4.490;2023-07-22T09:00:10;22.30;99.90
14521;DHT22;7347;50.844;4.490;2023-07-22T09:02:38;22.20;99.90
14521;DHT22;7347;50.844;4.490;2023-07-22T09:05:07;22.20;99.90
14521;DHT22;7347;50.844;4.490;2023-07-22T09:07:36;22.00;99.90
14521;DHT22;7347;50.844;4.490;2023-07-22T09:10:05;22.00;99.90
14521;DHT22;7347;50.844;4.490;2023-07-22T09:12:33;22.00;99.90
14521;DHT22;7347;50.844;4.490;2023-07-22T09:15:07;22.00;99.90
14521;DHT22;7347;50.844;4.490;2023-07-22T09:17:36;22.40;99.90
14521;DHT22;7347;50.844;4.490;2023-07-22T09:20:03;22.70;99.90
14521;DHT22;7347;50.844;4.490;2023-07-22T09:22:31;23.20;99.90
14521;DHT22;7347;50.844;4.490;2023-07-22T09:25:13;23.50;99.90
14521;DHT22;7347;50.844;4.490;2023-07-22T09:27:42;23.90;99.90
14521;DHT22;7347;50.844;4.490;2023-07-22T09:30:24;24.20;99.90
14521;DHT22;7347;50.844;4.490;2023-07-22T09:32:51;24.60;99.90
14521;DHT22;7347;50.844;4.490;2023-07-22T09:35:19;25.00;99.90
14521;DHT22;7347;50.844;4.490;2023-07-22T09:37:46;25.20;99.90
14521;DHT22;7347;50.844;4.490;2023-07-22T09:40:19;25.20;99.90
14521;DHT22;7347;50.844;4.490;2023-07-22T09:42:47;25.40;99.90
14521;DHT22;7347;50.844;4.490;2023-07-22T09:45:15;25.20;99.90
14521;DHT22;7347;50.844;4.490;2023-07-22T09:47:43;24.50;99.80
14521;DHT22;7347;50.844;4.490;2023-07-22T09:50:14;24.00;99.90
14521;DHT22;7347;50.844;4.490;2023-07-22T09:52:44;23.70;99.90
14521;DHT22;7347;50.844;4.490;2023-07-22T09:55:12;23.60;99.90
14521;DHT22;7347;50.844;4.490;2023-07-22T09:57:43;23.30;99.90
14521;DHT22;7347;50.844;4.490;2023-07-22T10:00:11;23.40;99.90
14521;DHT22;7347;50.844;4.490;2023-07-22T10:02:40;23.40;99.90
14521;DHT22;7347;50.844;4.490;2023-07-22T10:05:13;23.70;99.90
14521;DHT22;7347;50.844;4.490;2023-07-22T10:07:44;23.70;99.90
14521;DHT22;7347;50.844;4.490;2023-07-22T10:10:12;23.60;99.90
14521;DHT22;7347;50.844;4.490;2023-07-22T10:12:41;23.60;99.90
14521;DHT22;7347;50.844;4.490;2023-07-22T10:15:10;23.20;99.90
14521;DHT22;7347;50.844;4.490;2023-07-22T10:17:37;23.20;99.90
14521;DHT22;7347;50.844;4.490;2023-07-22T10:20:06;23.20;99.90
14521;DHT22;7347;50.844;4.490;2023-07-22T10:22:36;23.10;99.50
14521;DHT22;7347;50.844;4.490;2023-07-22T10:25:04;22.90;99.60
14521;DHT22;7347;50.844;4.490;2023-07-22T10:27:32;23.10;99.70
14521;DHT22;7347;50.844;4.490;2023-07-22T10:30:02;23.00;99.60
14521;DHT22;7347;50.844;4.490;2023-07-22T10:32:33;22.90;99.90
14521;DHT22;7347;50.844;4.490;2023-07-22T10:35:01;23.10;99.90
14521;DHT22;7347;50.844;4.490;2023-07-22T10:37:32;23.20;98.80
14521;DHT22;7347;50.844;4.490;2023-07-22T10:40:00;23.20;98.80
14521;DHT22;7347;50.844;4.490;2023-07-22T10:42:28;23.30;99.20
14521;DHT22;7347;50.844;4.490;2023-07-22T10:45:01;23.40;98.70
14521;DHT22;7347;50.844;4.490;2023-07-22T10:47:32;23.40;98.40
14521;DHT22;7347;50.844;4.490;2023-07-22T10:50:06;23.30;97.40
14521;DHT22;7347;50.844;4.490;2023-07-22T10:52:44;23.20;98.10
14521;DHT22;7347;50.844;4.490;2023-07-22T10:55:16;23.20;97.30
14521;DHT22;7347;50.844;4.490;2023-07-22T10:57:52;22.90;97.50
14521;DHT22;7347;50.844;4.490;2023-07-22T11:00:21;22.90;98.00
14521;DHT22;7347;50.844;4.490;2023-07-22T11:03:08;23.10;98.30
14521;DHT22;7347;50.844;4.490;2023-07-22T11:05:51;23.10;98.30
14521;DHT22;7347;50.844;4.490;2023-07-22T11:08:36;23.30;98.10
14521;DHT22;7347;50.844;4.490;2023-07-22T11:11:04;23.30;98.20
14521;DHT22;7347;50.844;4.490;2023-07-22T11:13:37;23.50;98.60
14521;DHT22;7347;50.844;4.490;2023-07-22T11:16:04;23.70;98.20
14521;DHT22;7347;50.844;4.490;2023-07-22T11:18:36;23.80;98.20
14521;DHT22;7347;50.844;4.490;2023-07-22T11:21:10;23.60;98.00
14521;DHT22;7347;50.844;4.490;2023-07-22T11:23:37;23.60;98.60
14521;DHT22;7347;50.844;4.490;2023-07-22T11:26:04;23.70;99.10
14521;DHT22;7347;50.844;4.490;2023-07-22T11:28:31;23.90;98.30
14521;DHT22;7347;50.844;4.490;2023-07-22T11:30:58;24.20;98.60
14521;DHT22;7347;50.844;4.490;2023-07-22T11:33:27;24.30;97.30
14521;DHT22;7347;50.844;4.490;2023-07-22T11:36:03;24.10;98.00
14521;DHT22;7347;50.844;4.490;2023-07-22T11:38:32;24.10;97.50
14521;DHT22;7347;50.844;4.490;2023-07-22T11:40:59;24.00;97.30
14521;DHT22;7347;50.844;4.490;2023-07-22T11:43:26;24.00;97.40
14521;DHT22;7347;50.844;4.490;2023-07-22T11:45:53;24.00;97.70
14521;DHT22;7347;50.844;4.490;2023-07-22T11:48:20;23.90;98.00
14521;DHT22;7347;50.844;4.490;2023-07-22T11:50:47;23.70;97.30
14521;DHT22;7347;50.844;4.490;2023-07-22T11:53:14;23.70;97.20
14521;DHT22;7347;50.844;4.490;2023-07-22T11:55:42;23.60;97.90
14521;DHT22;7347;50.844;4.490;2023-07-22T11:58:10;23.60;97.40
14521;DHT22;7347;50.844;4.490;2023-07-22T12:00:37;23.50;96.80
14521;DHT22;7347;50.844;4.490;2023-07-22T12:03:07;23.40;96.70
14521;DHT22;7347;50.844;4.490;2023-07-22T12:05:35;23.60;97.00
14521;DHT22;7347;50.844;4.490;2023-07-22T12:08:03;23.70;97.00
14521;DHT22;7347;50.844;4.490;2023-07-22T12:10:32;23.60;96.40
14521;DHT22;7347;50.844;4.490;2023-07-22T12:13:01;23.70;96.40
14521;DHT22;7347;50.844;4.490;2023-07-22T12:15:29;23.90;97.20
14521;DHT22;7347;50.844;4.490;2023-07-22T12:17:58;23.80;96.60
14521;DHT22;7347;50.844;4.490;2023-07-22T12:20:26;23.90;96.20
14521;DHT22;7347;50.844;4.490;2023-07-22T12:22:53;23.90;96.10
14521;DHT22;7347;50.844;4.490;2023-07-22T12:25:21;23.60;96.00
14521;DHT22;7347;50.844;4.490;2023-07-22T12:27:47;23.60;97.10
14521;DHT22;7347;50.844;4.490;2023-07-22T12:30:16;23.80;96.30
14521;DHT22;7347;50.844;4.490;2023-07-22T12:32:44;23.90;95.60
14521;DHT22;7347;50.844;4.490;2023-07-22T12:35:12;23.60;94.80
14521;DHT22;7347;50.844;4.490;2023-07-22T12:37:39;23.40;95.80
14521;DHT22;7347;50.844;4.490;2023-07-22T12:40:07;23.50;96.80
14521;DHT22;7347;50.844;4.490;2023-07-22T12:42:34;23.80;96.10
14521;DHT22;7347;50.844;4.490;2023-07-22T12:45:01;23.90;95.60
14521;DHT22;7347;50.844;4.490;2023-07-22T12:47:29;23.80;96.00
14521;DHT22;7347;50.844;4.490;2023-07-22T12:49:56;23.50;96.10
